Time;durP1;ratioP1;P1;durP2;ratioP2;P2;SDS_P1;SDS_P2;PMS_P1;PMS_P2;Temp;Humidity;BMP_temperature;BMP_pressure;BME280_temperature;BME280_humidity;BME280_pressure;Samples;Min_cycle;Max_cycle;Signal;HPM_P1;HPM_P2
2021/08/07 00:01:59;;;;;;;6.80;3.10;;;18.10;94.40;;;;;;5042881;28;20174;-82
2021/08/07 00:04:26;;;;;;;5.47;3.33;;;18.10;94.30;;;;;;5043398;28;20364;-83
2021/08/07 00:06:52;;;;;;;6.18;3.33;;;18.00;94.40;;;;;;5041628;28;20216;-83
2021/08/07 00:09:18;;;;;;;6.22;3.45;;;18.00;94.50;;;;;;5043264;28;20660;-83
2021/08/07 00:11:44;;;;;;;5.63;3.20;;;17.90;94.80;;;;;;5042926;28;20256;-83
2021/08/07 00:14:10;;;;;;;6.37;2.93;;;17.90;94.60;;;;;;5043165;28;20189;-83
2021/08/07 00:16:36;;;;;;;12.80;3.70;;;17.90;94.50;;;;;;5043084;28;20778;-83
2021/08/07 00:19:04;;;;;;;10.57;4.53;;;17.90;94.80;;;;;;5042280;28;20176;-83
2021/08/07 00:21:29;;;;;;;5.57;3.05;;;17.80;95.00;;;;;;5044324;28;20176;-82
2021/08/07 00:23:55;;;;;;;9.05;4.20;;;17.80;95.20;;;;;;5042787;28;20673;-83
2021/08/07 00:26:21;;;;;;;10.13;4.33;;;17.80;95.70;;;;;;5042740;28;20177;-83
2021/08/07 00:28:47;;;;;;;11.80;3.63;;;17.70;96.30;;;;;;5041454;28;20211;-83
2021/08/07 00:31:13;;;;;;;11.63;4.97;;;17.60;96.90;;;;;;5040735;28;20404;-83
2021/08/07 00:33:39;;;;;;;6.50;3.30;;;17.60;96.90;;;;;;5039895;28;20204;-82
2021/08/07 00:36:04;;;;;;;5.97;3.60;;;17.60;96.90;;;;;;5039583;28;20268;-83
2021/08/07 00:38:30;;;;;;;6.07;3.27;;;17.60;97.30;;;;;;5040477;28;20625;-83
2021/08/07 00:40:57;;;;;;;6.23;3.30;;;17.50;97.60;;;;;;5040525;28;20181;-83
2021/08/07 00:43:22;;;;;;;7.78;3.63;;;17.40;97.80;;;;;;5040407;28;20444;-82
2021/08/07 00:45:48;;;;;;;6.47;3.30;;;17.30;98.10;;;;;;5039947;28;20694;-83
2021/08/07 00:48:14;;;;;;;6.97;3.60;;;17.40;98.10;;;;;;5040364;28;20177;-82
2021/08/07 00:50:40;;;;;;;9.47;3.43;;;17.40;98.10;;;;;;5040611;28;20629;-82
2021/08/07 00:53:07;;;;;;;10.25;4.07;;;17.40;98.40;;;;;;5040191;28;20440;-82
2021/08/07 00:55:33;;;;;;;11.70;4.57;;;17.30;98.40;;;;;;5040312;28;20169;-82
2021/08/07 00:57:59;;;;;;;7.80;4.00;;;17.40;98.30;;;;;;5040024;28;20664;-82
2021/08/07 01:00:25;;;;;;;9.40;4.00;;;17.30;98.30;;;;;;5040424;28;20173;-82
2021/08/07 01:03:02;;;;;;;8.33;3.80;;;17.40;98.00;;;;;;5039926;28;20292;-82
2021/08/07 01:05:42;;;;;;;5.57;3.75;;;17.40;98.40;;;;;;5039436;28;20425;-83
2021/08/07 01:08:21;;;;;;;9.15;3.83;;;17.40;98.20;;;;;;5039647;28;20238;-83
2021/08/07 01:11:12;;;;;;;8.32;4.15;;;17.40;97.80;;;;;;5039241;28;20227;-83
2021/08/07 01:13:48;;;;;;;13.45;3.83;;;17.40;98.00;;;;;;5038880;28;20239;-83
2021/08/07 01:16:26;;;;;;;9.75;3.72;;;17.40;97.80;;;;;;5039109;28;20173;-83
2021/08/07 01:18:53;;;;;;;4.82;3.25;;;17.40;97.90;;;;;;5038819;28;20518;-83
2021/08/07 01:21:23;;;;;;;8.00;3.50;;;17.50;97.80;;;;;;5057400;28;20169;-83
2021/08/07 01:24:05;;;;;;;12.65;4.45;;;17.50;97.80;;;;;;5039348;28;20201;-83
2021/08/07 01:26:55;;;;;;;4.97;3.30;;;17.50;97.60;;;;;;5039335;28;20220;-83
2021/08/07 01:29:23;;;;;;;9.15;4.40;;;17.50;97.50;;;;;;5038681;28;20193;-83
2021/08/07 01:31:51;;;;;;;6.13;4.30;;;17.50;97.20;;;;;;5039127;28;20173;-83
2021/08/07 01:34:18;;;;;;;8.68;3.08;;;17.60;97.00;;;;;;5039038;28;20688;-83
2021/08/07 01:36:45;;;;;;;8.98;3.83;;;17.60;97.10;;;;;;5039189;28;20169;-83
2021/08/07 01:39:10;;;;;;;7.25;3.08;;;17.50;97.20;;;;;;5039301;28;20641;-83
2021/08/07 01:41:37;;;;;;;5.37;3.47;;;17.50;97.20;;;;;;5038482;28;20183;-82
2021/08/07 01:44:04;;;;;;;6.38;2.85;;;17.50;97.30;;;;;;5039606;28;20193;-82
2021/08/07 01:46:38;;;;;;;7.03;3.50;;;17.50;97.10;;;;;;5039163;28;20180;-83
2021/08/07 01:49:14;;;;;;;9.13;3.97;;;17.50;97.10;;;;;;5039483;28;20204;-83
2021/08/07 01:51:54;;;;;;;10.18;3.53;;;17.50;97.00;;;;;;5038784;28;20268;-83
2021/08/07 01:54:29;;;;;;;6.65;3.22;;;17.60;96.80;;;;;;5038373;28;20723;-83
2021/08/07 01:56:56;;;;;;;7.45;3.40;;;17.60;96.90;;;;;;5038322;28;20165;-83
2021/08/07 01:59:23;;;;;;;7.85;3.20;;;17.60;96.80;;;;;;5039617;28;20169;-82
2021/08/07 02:01:50;;;;;;;4.88;3.03;;;17.60;96.70;;;;;;5039308;28;20181;-82
2021/08/07 02:04:19;;;;;;;5.07;3.00;;;17.60;96.60;;;;;;5039332;28;20200;-82
2021/08/07 02:06:45;;;;;;;7.85;3.45;;;17.60;96.70;;;;;;5039820;28;20276;-82
2021/08/07 02:09:12;;;;;;;5.55;3.20;;;17.60;96.70;;;;;;5039372;28;20204;-82
2021/08/07 02:11:41;;;;;;;6.57;3.20;;;17.60;96.80;;;;;;5038543;28;20165;-83
2021/08/07 02:14:08;;;;;;;8.40;3.67;;;17.60;96.80;;;;;;5038014;28;20292;-83
2021/08/07 02:16:37;;;;;;;6.07;2.72;;;17.60;96.80;;;;;;5038064;28;20234;-82
2021/08/07 02:19:05;;;;;;;7.30;2.78;;;17.70;96.60;;;;;;5037721;28;20177;-83
2021/08/07 02:21:31;;;;;;;5.35;2.63;;;17.80;96.30;;;;;;5037583;28;20173;-82
2021/08/07 02:23:57;;;;;;;4.63;2.88;;;17.80;95.90;;;;;;5037544;28;20203;-82
2021/08/07 02:26:25;;;;;;;8.37;4.30;;;17.90;95.60;;;;;;5037695;28;20169;-82
2021/08/07 02:28:51;;;;;;;8.15;3.58;;;17.90;95.50;;;;;;5036780;28;20451;-83
2021/08/07 02:31:20;;;;;;;4.68;2.70;;;17.90;95.30;;;;;;5037737;28;20177;-83
2021/08/07 02:33:47;;;;;;;10.13;3.10;;;18.00;95.30;;;;;;5037818;28;20666;-83
2021/08/07 02:36:15;;;;;;;3.80;2.90;;;18.00;95.40;;;;;;5037765;28;20164;-82
2021/08/07 02:38:42;;;;;;;8.02;2.92;;;18.00;95.30;;;;;;5038105;28;20207;-82
2021/08/07 02:41:09;;;;;;;7.63;3.15;;;18.00;95.10;;;;;;5037657;28;20173;-83
2021/08/07 02:43:36;;;;;;;7.68;3.55;;;18.00;95.20;;;;;;5037690;28;20193;-83
2021/08/07 02:46:02;;;;;;;17.10;3.50;;;18.00;95.20;;;;;;5038235;28;20173;-83
2021/08/07 02:48:28;;;;;;;7.10;3.07;;;18.00;95.50;;;;;;5037008;28;20587;-83
2021/08/07 02:50:55;;;;;;;4.15;3.08;;;17.90;95.60;;;;;;5037379;28;20411;-83
2021/08/07 02:53:22;;;;;;;7.40;3.42;;;17.90;96.20;;;;;;5037190;28;20201;-83
2021/08/07 02:55:48;;;;;;;3.90;3.10;;;17.90;96.10;;;;;;5036786;28;20169;-83
2021/08/07 02:58:14;;;;;;;5.55;3.85;;;17.90;96.10;;;;;;5039974;28;20516;-82
2021/08/07 03:00:40;;;;;;;3.53;3.33;;;17.90;96.20;;;;;;5040300;28;20185;-83
2021/08/07 03:03:06;;;;;;;7.33;2.73;;;17.80;96.10;;;;;;5041310;28;20861;-83
2021/08/07 03:05:32;;;;;;;4.73;3.17;;;17.80;96.10;;;;;;5041484;28;20177;-83
2021/08/07 03:07:58;;;;;;;5.13;3.15;;;17.70;96.20;;;;;;5041689;28;20553;-83
2021/08/07 03:10:25;;;;;;;6.45;3.20;;;17.70;96.20;;;;;;5041857;28;20253;-83
2021/08/07 03:12:56;;;;;;;7.78;2.85;;;17.70;96.40;;;;;;5041825;28;20216;-82
2021/08/07 03:15:24;;;;;;;7.78;3.40;;;17.60;96.60;;;;;;5042745;28;20165;-82
2021/08/07 03:17:50;;;;;;;16.80;3.03;;;17.60;96.60;;;;;;5042102;28;20537;-82
2021/08/07 03:20:17;;;;;;;9.95;3.58;;;17.60;96.70;;;;;;5042423;28;20223;-82
2021/08/07 03:22:43;;;;;;;4.78;3.50;;;17.50;96.90;;;;;;5041680;28;20184;-82
2021/08/07 03:25:10;;;;;;;7.43;3.08;;;17.50;96.90;;;;;;5041688;28;20177;-82
2021/08/07 03:27:36;;;;;;;8.48;3.28;;;17.40;96.80;;;;;;5041249;28;20173;-82
2021/08/07 03:30:04;;;;;;;8.03;3.60;;;17.40;97.00;;;;;;5042713;28;20562;-82
2021/08/07 03:32:29;;;;;;;6.85;2.72;;;17.30;97.40;;;;;;5042787;28;20407;-82
2021/08/07 03:34:55;;;;;;;10.90;4.20;;;17.30;97.30;;;;;;5042950;28;20170;-82
2021/08/07 03:37:21;;;;;;;5.63;3.20;;;17.20;97.20;;;;;;5042319;28;20480;-82
2021/08/07 03:39:47;;;;;;;6.83;3.40;;;17.20;97.50;;;;;;5043196;28;20739;-82
2021/08/07 03:42:13;;;;;;;4.70;2.70;;;17.20;97.60;;;;;;5042619;28;20179;-82
2021/08/07 03:44:38;;;;;;;9.47;3.40;;;17.10;97.80;;;;;;5042607;28;20444;-83
2021/08/07 03:47:04;;;;;;;8.60;3.07;;;17.10;97.60;;;;;;5043506;28;20180;-83
2021/08/07 03:49:30;;;;;;;6.17;2.77;;;17.10;97.40;;;;;;5040618;28;20977;-83
2021/08/07 03:51:56;;;;;;;4.13;3.17;;;17.10;97.30;;;;;;5040679;28;20250;-83
2021/08/07 03:54:21;;;;;;;9.30;3.20;;;17.00;97.40;;;;;;5041223;28;20200;-83
2021/08/07 03:56:47;;;;;;;3.73;2.63;;;17.00;97.40;;;;;;5040220;28;20177;-83
2021/08/07 03:59:13;;;;;;;4.77;3.00;;;17.00;97.10;;;;;;5039741;28;20268;-83
2021/08/07 04:01:39;;;;;;;5.20;3.67;;;17.00;97.10;;;;;;5039997;28;20284;-83
2021/08/07 04:04:06;;;;;;;10.83;3.27;;;17.00;97.00;;;;;;5040870;28;20296;-82
2021/08/07 04:06:32;;;;;;;4.30;2.33;;;17.00;97.00;;;;;;5041893;28;20268;-82
2021/08/07 04:09:00;;;;;;;8.07;4.10;;;17.00;97.10;;;;;;5041110;28;20236;-82
2021/08/07 04:11:26;;;;;;;8.48;2.90;;;17.00;97.10;;;;;;5041614;28;20404;-82
2021/08/07 04:13:51;;;;;;;6.27;3.57;;;17.00;97.40;;;;;;5041424;28;20251;-82
2021/08/07 04:16:17;;;;;;;4.20;2.90;;;16.90;98.10;;;;;;5041679;28;20215;-82
2021/08/07 04:18:43;;;;;;;6.77;3.30;;;16.80;98.50;;;;;;5041152;28;20216;-82
2021/08/07 04:21:09;;;;;;;4.80;2.97;;;16.80;98.80;;;;;;5041270;28;20177;-82
2021/08/07 04:23:34;;;;;;;5.20;2.90;;;16.70;98.90;;;;;;5040639;28;20208;-82
2021/08/07 04:26:00;;;;;;;5.03;3.30;;;16.80;98.80;;;;;;5041542;28;20415;-82
2021/08/07 04:28:26;;;;;;;6.03;3.07;;;16.80;98.90;;;;;;5041040;28;20416;-82
2021/08/07 04:30:52;;;;;;;8.20;3.43;;;16.70;98.90;;;;;;5041455;28;20276;-82
2021/08/07 04:33:18;;;;;;;8.13;3.57;;;16.80;98.60;;;;;;5040166;28;20503;-82
2021/08/07 04:35:43;;;;;;;11.10;2.80;;;16.80;98.40;;;;;;5039730;28;20419;-82
2021/08/07 04:38:10;;;;;;;11.60;3.63;;;16.80;98.40;;;;;;5039654;28;20209;-82
2021/08/07 04:40:37;;;;;;;5.45;3.53;;;16.90;98.50;;;;;;5039050;28;20427;-82
2021/08/07 04:43:02;;;;;;;10.82;3.60;;;16.90;98.70;;;;;;5038677;28;20247;-82
2021/08/07 04:45:28;;;;;;;8.00;3.60;;;16.90;98.60;;;;;;5039243;28;20185;-82
2021/08/07 04:47:54;;;;;;;9.70;4.00;;;16.90;98.90;;;;;;5038950;28;20169;-82
2021/08/07 04:50:21;;;;;;;5.37;3.30;;;16.80;98.80;;;;;;5041542;28;20558;-83
2021/08/07 04:52:46;;;;;;;12.82;4.05;;;16.80;99.00;;;;;;5039439;28;20805;-83
2021/08/07 04:55:12;;;;;;;6.70;3.30;;;16.80;99.10;;;;;;5040225;28;20165;-83
2021/08/07 04:57:38;;;;;;;9.03;4.03;;;16.80;99.10;;;;;;5039185;28;20410;-83
2021/08/07 05:00:05;;;;;;;11.03;3.53;;;16.80;99.10;;;;;;5039545;28;20553;-83
2021/08/07 05:02:30;;;;;;;5.25;3.38;;;16.80;99.10;;;;;;5039332;28;20507;-83
2021/08/07 05:04:56;;;;;;;7.13;3.53;;;16.90;99.10;;;;;;5039066;28;20196;-83
2021/08/07 05:07:22;;;;;;;5.50;3.53;;;17.00;99.10;;;;;;5038757;28;20543;-83
2021/08/07 05:09:48;;;;;;;6.03;3.30;;;17.10;98.70;;;;;;5038447;28;20459;-83
2021/08/07 05:12:14;;;;;;;5.50;3.20;;;17.20;98.20;;;;;;5039182;28;20173;-82
2021/08/07 05:14:39;;;;;;;5.80;3.00;;;17.20;98.00;;;;;;5039431;28;20443;-83
2021/08/07 05:17:05;;;;;;;6.73;3.10;;;17.20;97.70;;;;;;5039021;28;20408;-83
2021/08/07 05:19:31;;;;;;;7.03;3.10;;;17.30;97.30;;;;;;5038882;28;20181;-83
2021/08/07 05:21:57;;;;;;;8.17;3.07;;;17.40;97.40;;;;;;5040268;28;20253;-83
2021/08/07 05:24:22;;;;;;;6.20;3.47;;;17.40;96.60;;;;;;5040445;28;20485;-83
2021/08/07 05:26:48;;;;;;;7.03;2.67;;;17.50;97.00;;;;;;5040185;28;20177;-83
2021/08/07 05:29:14;;;;;;;9.30;2.87;;;17.50;96.60;;;;;;5040490;28;20205;-83
2021/08/07 05:31:40;;;;;;;4.90;2.73;;;17.50;96.60;;;;;;5040449;28;20204;-84
2021/08/07 05:34:05;;;;;;;7.20;3.57;;;17.60;96.50;;;;;;5037363;28;20480;-84
2021/08/07 05:36:31;;;;;;;10.20;3.50;;;17.60;96.80;;;;;;5037411;28;20173;-84
2021/08/07 05:38:57;;;;;;;7.43;4.00;;;17.60;96.30;;;;;;5036744;28;20173;-84
2021/08/07 05:41:23;;;;;;;6.83;4.47;;;17.60;95.80;;;;;;5037213;28;20176;-83
2021/08/07 05:43:48;;;;;;;8.70;3.77;;;17.60;96.10;;;;;;5039790;28;20200;-83
2021/08/07 05:46:14;;;;;;;7.17;3.13;;;17.60;96.40;;;;;;5040081;28;20213;-83
2021/08/07 05:48:40;;;;;;;5.97;3.30;;;17.60;96.60;;;;;;5040474;28;20419;-84
2021/08/07 05:51:05;;;;;;;6.27;3.57;;;17.70;96.60;;;;;;5040233;28;20173;-83
2021/08/07 05:53:31;;;;;;;8.60;3.23;;;17.70;96.50;;;;;;5113362;22;20565;-77
2021/08/07 05:55:57;;;;;;;8.20;3.73;;;17.80;96.20;;;;;;5036900;28;20644;-78
2021/08/07 05:58:23;;;;;;;6.40;3.30;;;17.90;95.50;;;;;;5036624;28;20170;-79
2021/08/07 06:00:49;;;;;;;10.35;3.20;;;18.00;95.30;;;;;;5037080;28;20584;-78
2021/08/07 06:03:15;;;;;;;10.87;2.70;;;18.10;94.80;;;;;;5036241;28;20193;-78
2021/08/07 06:05:40;;;;;;;10.47;4.03;;;18.10;94.80;;;;;;5036540;28;20430;-78
2021/08/07 06:08:06;;;;;;;12.20;4.20;;;18.20;94.30;;;;;;5035685;28;20196;-77
2021/08/07 06:10:32;;;;;;;4.50;2.73;;;18.30;95.00;;;;;;5036013;28;20299;-77
2021/08/07 06:12:58;;;;;;;7.10;3.83;;;18.30;94.70;;;;;;5035978;28;20188;-78
2021/08/07 06:15:24;;;;;;;8.47;3.13;;;18.30;94.50;;;;;;5036448;28;20888;-79
2021/08/07 06:17:49;;;;;;;6.33;3.17;;;18.40;94.70;;;;;;5036371;28;20205;-78
2021/08/07 06:20:15;;;;;;;3.87;2.90;;;18.50;94.70;;;;;;5027354;28;20924;-78
2021/08/07 06:22:41;;;;;;;14.73;4.87;;;18.60;94.20;;;;;;5016684;28;20173;-78
2021/08/07 06:25:08;;;;;;;7.45;3.42;;;18.60;94.00;;;;;;5016472;28;20417;-78
2021/08/07 06:27:34;;;;;;;8.10;3.90;;;18.60;93.50;;;;;;5016634;28;20819;-79
2021/08/07 06:30:00;;;;;;;5.37;3.70;;;18.60;93.80;;;;;;5016819;28;20197;-78
2021/08/07 06:32:26;;;;;;;13.82;5.25;;;18.60;93.60;;;;;;5020685;28;20401;-78
2021/08/07 06:34:52;;;;;;;20.98;4.15;;;18.60;94.00;;;;;;5020921;28;20174;-78
2021/08/07 06:37:18;;;;;;;8.10;3.40;;;18.70;94.40;;;;;;5021157;28;20305;-78
2021/08/07 06:39:44;;;;;;;8.63;3.70;;;18.80;94.30;;;;;;5021259;28;20190;-78
2021/08/07 06:42:10;;;;;;;7.83;3.63;;;19.00;93.90;;;;;;5022762;28;20170;-79
2021/08/07 06:44:36;;;;;;;8.00;3.70;;;19.20;93.10;;;;;;5020693;28;20294;-78
2021/08/07 06:47:03;;;;;;;7.10;3.83;;;19.40;91.70;;;;;;5020805;28;20209;-79
2021/08/07 06:49:29;;;;;;;7.55;3.30;;;19.50;90.40;;;;;;5020624;28;20202;-80
2021/08/07 06:51:54;;;;;;;4.93;3.00;;;19.60;90.10;;;;;;5020653;28;20178;-78
2021/08/07 06:54:20;;;;;;;5.80;2.67;;;19.70;89.80;;;;;;5020551;28;20598;-78
2021/08/07 06:56:48;;;;;;;7.83;2.93;;;19.90;89.80;;;;;;5020324;28;20174;-79
2021/08/07 06:59:14;;;;;;;9.65;3.10;;;20.00;89.20;;;;;;5020213;28;20182;-79
2021/08/07 07:01:40;;;;;;;5.50;3.80;;;20.10;88.10;;;;;;5020276;28;20180;-78
2021/08/07 07:04:06;;;;;;;4.95;2.60;;;20.10;87.80;;;;;;5020622;28;20220;-79
2021/08/07 07:06:32;;;;;;;7.00;2.60;;;20.30;87.10;;;;;;5020253;28;20662;-79
2021/08/07 07:08:58;;;;;;;3.23;2.00;;;20.40;87.10;;;;;;5020623;28;20201;-78
2021/08/07 07:11:23;;;;;;;7.23;3.17;;;20.50;86.70;;;;;;5020642;28;20177;-79
2021/08/07 07:13:49;;;;;;;7.77;2.77;;;20.70;85.80;;;;;;5020426;28;20201;-79
2021/08/07 07:16:15;;;;;;;5.73;2.50;;;20.80;85.10;;;;;;5020552;28;20409;-79
2021/08/07 07:18:41;;;;;;;5.40;2.60;;;21.00;84.50;;;;;;5021702;28;20307;-79
2021/08/07 07:21:09;;;;;;;6.70;2.90;;;21.10;83.30;;;;;;5020877;28;20634;-78
2021/08/07 07:23:35;;;;;;;6.65;2.65;;;21.40;83.00;;;;;;5021176;28;20796;-79
2021/08/07 07:26:01;;;;;;;6.13;2.50;;;21.60;82.30;;;;;;5023134;28;20177;-79
2021/08/07 07:28:27;;;;;;;4.70;2.53;;;21.70;82.10;;;;;;5021132;28;20486;-79
2021/08/07 07:30:53;;;;;;;5.37;2.60;;;21.80;81.60;;;;;;5021208;28;20625;-79
2021/08/07 07:33:18;;;;;;;4.37;2.63;;;21.90;81.90;;;;;;5020612;28;20211;-78
2021/08/07 07:35:44;;;;;;;6.97;3.00;;;21.90;79.60;;;;;;5020748;28;20174;-78
2021/08/07 07:38:11;;;;;;;4.53;2.37;;;21.90;80.90;;;;;;5038908;28;20245;-79
2021/08/07 07:40:37;;;;;;;7.25;2.40;;;21.80;80.50;;;;;;5019963;28;20177;-79
2021/08/07 07:43:02;;;;;;;6.60;2.40;;;21.90;79.80;;;;;;5018349;28;20198;-78
2021/08/07 07:45:28;;;;;;;5.80;2.70;;;21.80;80.30;;;;;;5018965;28;20185;-79
2021/08/07 07:47:54;;;;;;;6.43;2.30;;;21.90;81.60;;;;;;5020973;28;20425;-79
2021/08/07 07:50:20;;;;;;;8.93;2.40;;;22.10;79.80;;;;;;5021067;28;20460;-79
2021/08/07 07:52:47;;;;;;;4.00;2.20;;;22.30;79.60;;;;;;5021254;28;20227;-78
2021/08/07 07:55:13;;;;;;;5.00;2.00;;;22.60;77.30;;;;;;5020652;28;20163;-79
2021/08/07 07:57:39;;;;;;;6.50;2.50;;;22.90;77.80;;;;;;5022089;28;20172;-79
2021/08/07 08:00:06;;;;;;;4.83;2.20;;;23.10;76.40;;;;;;5020858;28;20503;-79
2021/08/07 08:02:31;;;;;;;6.78;2.38;;;23.20;75.60;;;;;;5020280;28;20412;-79
2021/08/07 08:04:57;;;;;;;8.43;2.27;;;23.30;76.20;;;;;;5021131;28;20209;-80
2021/08/07 08:07:23;;;;;;;3.73;2.00;;;23.30;75.80;;;;;;5021484;28;20643;-80
2021/08/07 08:09:49;;;;;;;8.20;2.93;;;23.40;76.20;;;;;;5019949;28;20285;-79
2021/08/07 08:12:15;;;;;;;7.70;2.50;;;23.60;74.90;;;;;;5020148;28;20416;-79
2021/08/07 08:14:41;;;;;;;6.33;2.00;;;23.70;73.40;;;;;;5020233;28;20437;-79
2021/08/07 08:17:06;;;;;;;12.37;3.07;;;23.80;74.10;;;;;;5019908;28;20415;-79
2021/08/07 08:19:32;;;;;;;8.10;1.80;;;23.90;71.70;;;;;;5020362;28;20459;-79
2021/08/07 08:21:58;;;;;;;6.47;2.10;;;23.90;72.10;;;;;;5020006;28;20409;-79
2021/08/07 08:24:24;;;;;;;4.23;1.80;;;24.00;72.10;;;;;;5019859;28;20284;-79
2021/08/07 08:26:50;;;;;;;4.88;1.83;;;23.90;70.90;;;;;;5019787;28;20558;-80
2021/08/07 08:29:15;;;;;;;9.93;2.07;;;23.80;72.30;;;;;;5020072;28;20201;-78
2021/08/07 08:31:41;;;;;;;2.23;1.70;;;23.80;72.40;;;;;;5020405;28;20174;-79
2021/08/07 08:34:07;;;;;;;2.87;2.07;;;23.80;71.90;;;;;;5020688;28;20186;-79
2021/08/07 08:36:33;;;;;;;3.67;2.20;;;23.90;74.10;;;;;;5020319;28;20401;-79
2021/08/07 08:38:59;;;;;;;6.77;2.00;;;24.10;71.30;;;;;;5020656;28;20177;-79
2021/08/07 08:41:25;;;;;;;3.43;1.80;;;24.10;71.20;;;;;;5037554;28;20177;-79
2021/08/07 08:43:51;;;;;;;6.93;2.47;;;24.10;69.10;;;;;;5019703;28;20662;-79
2021/08/07 08:46:19;;;;;;;3.40;1.80;;;24.10;71.30;;;;;;5019757;28;20255;-79
2021/08/07 08:48:45;;;;;;;9.10;2.40;;;24.10;70.30;;;;;;5020881;28;20416;-79
2021/08/07 08:51:12;;;;;;;14.80;2.40;;;24.00;70.60;;;;;;5020155;28;20180;-79
2021/08/07 08:53:44;;;;;;;5.85;2.20;;;24.00;70.30;;;;;;5018979;28;20733;-79
2021/08/07 08:56:10;;;;;;;3.40;1.70;;;24.00;68.30;;;;;;5018349;28;20170;-79
2021/08/07 08:58:36;;;;;;;4.65;1.77;;;24.00;70.80;;;;;;5018463;28;20640;-79
2021/08/07 09:01:04;;;;;;;4.40;2.03;;;24.00;69.90;;;;;;5019150;28;20257;-79
2021/08/07 09:03:30;;;;;;;8.13;2.25;;;24.00;70.80;;;;;;5018176;28;20197;-79
2021/08/07 09:05:56;;;;;;;4.50;2.07;;;23.90;71.30;;;;;;5017712;28;20175;-79
2021/08/07 09:08:21;;;;;;;4.07;2.20;;;23.90;68.90;;;;;;5018474;28;20452;-79
2021/08/07 09:10:48;;;;;;;6.20;2.23;;;23.80;70.30;;;;;;5018672;28;20478;-79
2021/08/07 09:13:20;;;;;;;4.65;2.13;;;23.90;69.50;;;;;;5017835;28;20340;-79
2021/08/07 09:15:46;;;;;;;6.45;2.63;;;23.90;70.80;;;;;;5017785;28;20177;-80
2021/08/07 09:18:23;;;;;;;5.90;2.40;;;23.90;72.00;;;;;;5017830;28;20540;-79
2021/08/07 09:20:51;;;;;;;4.25;2.00;;;23.90;70.80;;;;;;5018076;28;20408;-79
2021/08/07 09:23:33;;;;;;;10.27;3.20;;;24.00;72.30;;;;;;5018219;28;20201;-79
2021/08/07 09:26:16;;;;;;;8.65;1.95;;;24.00;71.00;;;;;;5018673;28;20174;-79
2021/08/07 09:28:43;;;;;;;4.95;2.30;;;24.10;72.30;;;;;;5019196;28;20316;-79
2021/08/07 09:31:09;;;;;;;5.18;1.70;;;24.20;71.00;;;;;;5018858;28;20196;-79
2021/08/07 09:33:36;;;;;;;4.93;2.40;;;24.20;70.60;;;;;;5018700;28;20190;-79
2021/08/07 09:36:02;;;;;;;6.53;2.40;;;24.30;69.60;;;;;;5019294;28;20600;-79
2021/08/07 09:38:31;;;;;;;5.67;2.10;;;24.30;68.40;;;;;;5019267;28;20189;-79
2021/08/07 09:41:01;;;;;;;4.75;1.98;;;24.20;69.20;;;;;;5018803;28;20174;-79
2021/08/07 09:43:28;;;;;;;5.97;2.10;;;24.20;69.80;;;;;;5019548;28;20653;-79
2021/08/07 09:46:20;;;;;;;5.75;2.10;;;24.10;70.80;;;;;;5019991;28;20193;-79
2021/08/07 09:48:55;;;;;;;6.10;2.30;;;24.10;70.30;;;;;;5018826;28;20660;-79
2021/08/07 09:51:24;;;;;;;8.35;2.35;;;24.10;73.40;;;;;;5018198;28;20197;-79
2021/08/07 09:54:18;;;;;;;9.43;2.20;;;24.10;73.80;;;;;;5018264;28;20239;-79
2021/08/07 09:56:45;;;;;;;4.40;2.40;;;24.10;72.10;;;;;;5019105;28;20201;-79
2021/08/07 09:59:12;;;;;;;5.20;1.92;;;24.10;73.30;;;;;;5018431;28;20542;-79
2021/08/07 10:01:38;;;;;;;13.07;4.28;;;24.00;70.80;;;;;;5017697;28;20170;-79
2021/08/07 10:04:12;;;;;;;5.73;1.93;;;23.90;76.60;;;;;;5017146;28;20208;-79
2021/08/07 10:06:40;;;;;;;4.95;2.13;;;23.80;73.40;;;;;;5017213;28;20816;-79
2021/08/07 10:09:07;;;;;;;5.95;2.55;;;23.60;73.50;;;;;;5016752;28;20260;-79
2021/08/07 10:11:34;;;;;;;5.72;2.97;;;23.50;76.40;;;;;;5017480;28;20255;-79
2021/08/07 10:14:00;;;;;;;3.25;2.20;;;23.30;77.80;;;;;;5017616;28;20216;-79
2021/08/07 10:16:27;;;;;;;4.47;1.83;;;23.20;79.50;;;;;;5018334;28;20174;-79
2021/08/07 10:18:53;;;;;;;6.80;1.88;;;23.10;79.20;;;;;;5019240;28;20173;-79
2021/08/07 10:21:20;;;;;;;3.97;2.10;;;23.00;79.60;;;;;;5017835;28;20182;-80
2021/08/07 10:23:50;;;;;;;3.55;2.10;;;23.00;82.60;;;;;;5017408;28;20205;-80
2021/08/07 10:26:20;;;;;;;4.35;2.25;;;22.90;88.90;;;;;;5017171;28;20665;-79
2021/08/07 10:28:53;;;;;;;4.97;2.60;;;22.80;89.20;;;;;;5017014;28;20780;-79
2021/08/07 10:31:24;;;;;;;6.07;3.25;;;22.70;89.90;;;;;;5018189;28;20173;-80
2021/08/07 10:33:53;;;;;;;8.70;2.75;;;22.50;90.90;;;;;;5018016;28;20197;-80
2021/08/07 10:36:19;;;;;;;10.48;2.50;;;22.40;91.10;;;;;;5018252;28;20658;-80
2021/08/07 10:38:46;;;;;;;2.80;2.15;;;22.30;91.90;;;;;;5018370;28;20169;-80
2021/08/07 10:41:12;;;;;;;7.70;2.88;;;22.10;91.40;;;;;;5018907;28;20178;-80
2021/08/07 10:43:39;;;;;;;4.82;2.45;;;22.00;92.20;;;;;;5018185;28;20202;-80
2021/08/07 10:46:07;;;;;;;9.75;2.80;;;21.90;92.80;;;;;;5018451;28;20174;-80
2021/08/07 10:48:39;;;;;;;5.65;2.30;;;21.80;94.20;;;;;;5017616;28;20174;-80
2021/08/07 10:51:25;;;;;;;8.45;2.35;;;21.70;95.00;;;;;;5017429;28;20257;-80
2021/08/07 10:53:56;;;;;;;2.72;1.70;;;21.50;93.30;;;;;;5000490;28;20217;-80
2021/08/07 10:56:42;;;;;;;5.95;2.75;;;21.50;93.40;;;;;;5017702;28;20197;-80
2021/08/07 10:59:11;;;;;;;8.25;3.40;;;21.40;93.40;;;;;;5017793;28;20652;-80
2021/08/07 11:01:41;;;;;;;13.15;3.60;;;21.40;94.00;;;;;;5017206;28;20217;-80
2021/08/07 11:04:32;;;;;;;4.93;3.00;;;21.20;95.70;;;;;;5017366;28;20268;-80
2021/08/07 11:07:04;;;;;;;5.80;3.13;;;21.20;96.50;;;;;;5017891;28;20170;-80
2021/08/07 11:09:39;;;;;;;6.75;3.45;;;21.20;94.40;;;;;;5017860;28;20288;-80
2021/08/07 11:12:10;;;;;;;15.50;3.03;;;21.20;94.30;;;;;;5017799;28;20169;-80
2021/08/07 11:14:47;;;;;;;4.68;2.65;;;21.10;95.80;;;;;;5018060;28;20221;-80
2021/08/07 11:17:12;;;;;;;11.23;3.60;;;21.10;94.30;;;;;;5017942;28;20161;-80
2021/08/07 11:19:49;;;;;;;10.40;2.93;;;21.10;94.20;;;;;;5021714;28;20169;-80
2021/08/07 11:22:19;;;;;;;6.43;2.50;;;21.10;94.80;;;;;;5021678;28;20177;-79
2021/08/07 11:24:55;;;;;;;4.22;2.58;;;21.10;95.90;;;;;;5022262;28;20209;-80
2021/08/07 11:27:41;;;;;;;5.50;2.55;;;21.10;95.60;;;;;;5021985;28;20623;-81
2021/08/07 11:30:25;;;;;;;7.97;2.65;;;20.90;95.10;;;;;;5022438;28;20335;-80
2021/08/07 11:33:00;;;;;;;5.78;2.92;;;20.90;95.70;;;;;;5021610;28;20189;-80
2021/08/07 11:38:13;;;;;;;15.52;4.57;;;20.80;95.70;;;;;;5039477;28;20172;-79
2021/08/07 11:40:54;;;;;;;6.05;3.25;;;20.70;95.80;;;;;;5021822;28;20174;-79
2021/08/07 11:43:33;;;;;;;6.53;3.35;;;20.60;96.30;;;;;;5024393;28;20197;-81
2021/08/07 11:46:00;;;;;;;5.75;2.95;;;20.50;95.80;;;;;;5025384;28;20184;-80
2021/08/07 11:48:37;;;;;;;6.55;2.85;;;20.50;96.90;;;;;;5025277;28;20305;-80
2021/08/07 11:51:12;;;;;;;7.75;3.35;;;20.50;96.50;;;;;;5028362;28;20812;-82
2021/08/07 11:53:42;;;;;;;7.65;2.97;;;20.50;96.70;;;;;;5022985;28;20300;-82
2021/08/07 11:56:12;;;;;;;7.53;2.72;;;20.50;97.10;;;;;;5122930;23;20220;-81
2021/08/07 11:58:47;;;;;;;7.47;3.25;;;20.60;97.50;;;;;;5060912;28;20187;-82
2021/08/07 12:01:13;;;;;;;5.35;3.10;;;20.60;97.30;;;;;;5060186;28;20189;-83
2021/08/07 12:03:40;;;;;;;6.30;3.40;;;20.60;96.40;;;;;;5050564;28;20195;-83
2021/08/07 12:06:06;;;;;;;7.63;3.95;;;20.70;97.10;;;;;;5040345;28;20256;-83
2021/08/07 12:08:33;;;;;;;9.20;3.30;;;20.70;98.30;;;;;;5040166;28;20192;-83
2021/08/07 12:11:04;;;;;;;5.20;3.30;;;20.80;98.30;;;;;;5040173;28;20660;-83
2021/08/07 12:13:32;;;;;;;7.03;3.45;;;20.80;98.10;;;;;;5039847;28;20243;-83
2021/08/07 12:16:05;;;;;;;6.10;3.15;;;20.90;98.40;;;;;;5039244;28;20219;-83
2021/08/07 12:18:42;;;;;;;8.05;3.17;;;21.00;98.70;;;;;;5039093;28;20165;-83
2021/08/07 12:21:10;;;;;;;7.03;3.28;;;21.10;97.50;;;;;;5039017;28;20172;-83
2021/08/07 12:23:47;;;;;;;6.50;3.38;;;21.10;96.80;;;;;;5039042;28;20219;-83
2021/08/07 12:26:15;;;;;;;6.75;4.03;;;21.10;96.70;;;;;;5039203;28;20169;-83
2021/08/07 12:28:41;;;;;;;6.40;2.80;;;21.10;97.10;;;;;;5038481;28;20256;-83
2021/08/07 12:31:07;;;;;;;7.60;2.97;;;21.10;96.60;;;;;;5038746;28;20195;-83
2021/08/07 12:33:37;;;;;;;6.50;3.57;;;21.00;96.60;;;;;;5039028;28;20184;-82
2021/08/07 12:36:15;;;;;;;16.05;3.35;;;21.00;97.30;;;;;;5039056;28;20432;-83
2021/08/07 12:38:47;;;;;;;8.50;3.95;;;21.10;97.20;;;;;;5038941;28;20256;-83
2021/08/07 12:41:18;;;;;;;7.53;3.50;;;21.00;96.80;;;;;;5039962;28;20260;-83
2021/08/07 12:43:45;;;;;;;9.48;3.42;;;21.00;97.60;;;;;;5039022;28;20277;-83
2021/08/07 12:46:13;;;;;;;5.85;2.80;;;21.00;96.20;;;;;;5039230;28;20169;-83
2021/08/07 12:48:47;;;;;;;7.60;3.40;;;21.00;96.00;;;;;;5039507;28;20256;-83
2021/08/07 12:51:24;;;;;;;6.20;3.58;;;21.00;96.60;;;;;;5039658;28;20267;-82
2021/08/07 12:53:50;;;;;;;6.40;2.90;;;21.00;96.60;;;;;;5039293;28;20217;-83